Terminal Aerodrome Forecast
Issued by NWS

Home | Current Version | Previous Version | Graphics & Text | Print | Product List | Glossary On
Versions: 1 2 3 4 5 6 7 8 9 10 11 12 13 14 15 16 17 18 19 20 21 22
633
FTUS43 KICT 191513 AAB
TAFRSL
TAF AMD
KRSL 191513Z 1915/2012 07018G26KT P6SM OVC080
     FM192000 07017KT P6SM OVC050
     FM200000 03013KT P6SM VCSH OVC035
     FM200200 03013KT 3SM RA OVC017=

USA.gov is the U.S. government's official web portal to all federal, state and local government web resources and services.